sensor_id;sensor_type;location;lat;lon;timestamp;P1;durP1;ratioP1;P2;durP2;ratioP2
74926;SDS011;63488;48.092;-1.640;2023-03-12T00:01:47;25.25;;;4.80;;
74926;SDS011;63488;48.092;-1.640;2023-03-12T00:04:12;21.38;;;4.47;;
74926;SDS011;63488;48.092;-1.640;2023-03-12T00:06:38;23.05;;;4.88;;
74926;SDS011;63488;48.092;-1.640;2023-03-12T00:09:03;29.55;;;6.20;;
74926;SDS011;63488;48.092;-1.640;2023-03-12T00:11:28;25.17;;;5.15;;
74926;SDS011;63488;48.092;-1.640;2023-03-12T00:13:55;22.98;;;4.60;;
74926;SDS011;63488;48.092;-1.640;2023-03-12T00:16:21;23.50;;;4.78;;
74926;SDS011;63488;48.092;-1.640;2023-03-12T00:18:47;23.02;;;4.50;;
74926;SDS011;63488;48.092;-1.640;2023-03-12T00:21:12;23.52;;;4.95;;
74926;SDS011;63488;48.092;-1.640;2023-03-12T00:23:38;22.88;;;4.65;;
74926;SDS011;63488;48.092;-1.640;2023-03-12T00:26:07;24.48;;;4.70;;
74926;SDS011;63488;48.092;-1.640;2023-03-12T00:28:33;22.48;;;5.03;;
74926;SDS011;63488;48.092;-1.640;2023-03-12T00:31:02;23.38;;;4.30;;
74926;SDS011;63488;48.092;-1.640;2023-03-12T00:33:28;25.63;;;5.00;;
74926;SDS011;63488;48.092;-1.640;2023-03-12T00:35:54;20.05;;;4.70;;
74926;SDS011;63488;48.092;-1.640;2023-03-12T00:38:19;23.60;;;5.03;;
74926;SDS011;63488;48.092;-1.640;2023-03-12T00:40:44;21.35;;;4.85;;
74926;SDS011;63488;48.092;-1.640;2023-03-12T00:43:10;24.73;;;4.47;;
74926;SDS011;63488;48.092;-1.640;2023-03-12T00:45:35;21.88;;;4.13;;
74926;SDS011;63488;48.092;-1.640;2023-03-12T00:48:00;21.75;;;5.15;;
74926;SDS011;63488;48.092;-1.640;2023-03-12T00:50:26;20.85;;;4.38;;
74926;SDS011;63488;48.092;-1.640;2023-03-12T00:52:51;20.48;;;4.20;;
74926;SDS011;63488;48.092;-1.640;2023-03-12T00:55:17;19.77;;;4.93;;
74926;SDS011;63488;48.092;-1.640;2023-03-12T00:57:42;22.08;;;4.57;;
74926;SDS011;63488;48.092;-1.640;2023-03-12T01:00:08;24.42;;;5.10;;
74926;SDS011;63488;48.092;-1.640;2023-03-12T01:02:35;23.63;;;4.43;;
74926;SDS011;63488;48.092;-1.640;2023-03-12T01:05:00;20.23;;;5.03;;
74926;SDS011;63488;48.092;-1.640;2023-03-12T01:07:26;24.95;;;5.05;;
74926;SDS011;63488;48.092;-1.640;2023-03-12T01:09:51;20.65;;;4.57;;
74926;SDS011;63488;48.092;-1.640;2023-03-12T01:12:16;22.58;;;4.93;;
74926;SDS011;63488;48.092;-1.640;2023-03-12T01:14:42;21.98;;;4.22;;
74926;SDS011;63488;48.092;-1.640;2023-03-12T01:17:07;21.10;;;4.50;;
74926;SDS011;63488;48.092;-1.640;2023-03-12T01:19:32;21.80;;;4.40;;
74926;SDS011;63488;48.092;-1.640;2023-03-12T01:21:58;18.75;;;4.53;;
74926;SDS011;63488;48.092;-1.640;2023-03-12T01:24:23;20.67;;;4.05;;
74926;SDS011;63488;48.092;-1.640;2023-03-12T01:26:48;23.65;;;4.40;;
74926;SDS011;63488;48.092;-1.640;2023-03-12T01:29:14;18.50;;;4.85;;
74926;SDS011;63488;48.092;-1.640;2023-03-12T01:31:39;24.30;;;5.32;;
74926;SDS011;63488;48.092;-1.640;2023-03-12T01:34:04;20.98;;;4.32;;
74926;SDS011;63488;48.092;-1.640;2023-03-12T01:36:29;21.48;;;4.88;;
74926;SDS011;63488;48.092;-1.640;2023-03-12T01:38:56;24.30;;;5.28;;
74926;SDS011;63488;48.092;-1.640;2023-03-12T01:41:22;21.23;;;4.40;;
74926;SDS011;63488;48.092;-1.640;2023-03-12T01:43:48;19.60;;;3.60;;
74926;SDS011;63488;48.092;-1.640;2023-03-12T01:51:19;17.55;;;3.75;;
74926;SDS011;63488;48.092;-1.640;2023-03-12T01:53:46;19.92;;;4.38;;
74926;SDS011;63488;48.092;-1.640;2023-03-12T01:56:12;24.60;;;4.97;;
74926;SDS011;63488;48.092;-1.640;2023-03-12T01:58:38;24.02;;;4.97;;
74926;SDS011;63488;48.092;-1.640;2023-03-12T02:01:05;19.45;;;4.85;;
74926;SDS011;63488;48.092;-1.640;2023-03-12T02:03:30;21.17;;;4.50;;
74926;SDS011;63488;48.092;-1.640;2023-03-12T02:05:59;23.25;;;4.90;;
74926;SDS011;63488;48.092;-1.640;2023-03-12T02:10:51;19.77;;;4.27;;
74926;SDS011;63488;48.092;-1.640;2023-03-12T02:13:17;21.92;;;4.32;;
74926;SDS011;63488;48.092;-1.640;2023-03-12T02:15:42;20.80;;;4.35;;
74926;SDS011;63488;48.092;-1.640;2023-03-12T02:18:08;19.65;;;3.95;;
74926;SDS011;63488;48.092;-1.640;2023-03-12T02:20:40;20.05;;;4.43;;
74926;SDS011;63488;48.092;-1.640;2023-03-12T02:23:17;19.13;;;3.47;;
74926;SDS011;63488;48.092;-1.640;2023-03-12T02:25:45;21.02;;;4.22;;
74926;SDS011;63488;48.092;-1.640;2023-03-12T02:28:12;18.63;;;3.75;;
74926;SDS011;63488;48.092;-1.640;2023-03-12T02:30:43;21.23;;;4.43;;
74926;SDS011;63488;48.092;-1.640;2023-03-12T02:33:09;19.05;;;4.22;;
74926;SDS011;63488;48.092;-1.640;2023-03-12T02:35:35;17.73;;;3.97;;
74926;SDS011;63488;48.092;-1.640;2023-03-12T02:38:01;22.55;;;4.47;;
74926;SDS011;63488;48.092;-1.640;2023-03-12T02:40:28;24.20;;;5.20;;
74926;SDS011;63488;48.092;-1.640;2023-03-12T02:42:54;19.70;;;3.97;;
74926;SDS011;63488;48.092;-1.640;2023-03-12T02:45:20;20.52;;;4.07;;
74926;SDS011;63488;48.092;-1.640;2023-03-12T02:47:45;19.38;;;3.95;;
74926;SDS011;63488;48.092;-1.640;2023-03-12T02:50:11;22.23;;;4.88;;
74926;SDS011;63488;48.092;-1.640;2023-03-12T02:52:36;22.73;;;4.80;;
74926;SDS011;63488;48.092;-1.640;2023-03-12T02:55:02;23.63;;;4.60;;
74926;SDS011;63488;48.092;-1.640;2023-03-12T02:57:28;21.35;;;4.53;;
74926;SDS011;63488;48.092;-1.640;2023-03-12T02:59:53;21.98;;;4.60;;
74926;SDS011;63488;48.092;-1.640;2023-03-12T03:02:19;20.50;;;4.70;;
74926;SDS011;63488;48.092;-1.640;2023-03-12T03:04:44;23.20;;;4.60;;
74926;SDS011;63488;48.092;-1.640;2023-03-12T03:07:09;17.55;;;3.47;;
74926;SDS011;63488;48.092;-1.640;2023-03-12T03:09:35;18.73;;;4.18;;
74926;SDS011;63488;48.092;-1.640;2023-03-12T03:12:00;26.05;;;4.78;;
74926;SDS011;63488;48.092;-1.640;2023-03-12T03:14:25;21.20;;;4.53;;
74926;SDS011;63488;48.092;-1.640;2023-03-12T03:16:51;21.15;;;4.43;;
74926;SDS011;63488;48.092;-1.640;2023-03-12T03:19:16;25.35;;;4.00;;
74926;SDS011;63488;48.092;-1.640;2023-03-12T03:21:41;23.73;;;5.05;;
74926;SDS011;63488;48.092;-1.640;2023-03-12T03:24:07;21.45;;;4.55;;
74926;SDS011;63488;48.092;-1.640;2023-03-12T03:26:33;23.73;;;4.40;;
74926;SDS011;63488;48.092;-1.640;2023-03-12T03:28:58;22.85;;;4.68;;
74926;SDS011;63488;48.092;-1.640;2023-03-12T03:31:23;25.48;;;4.68;;
74926;SDS011;63488;48.092;-1.640;2023-03-12T03:33:49;21.80;;;4.95;;
74926;SDS011;63488;48.092;-1.640;2023-03-12T03:36:14;21.88;;;4.40;;
74926;SDS011;63488;48.092;-1.640;2023-03-12T03:38:40;21.27;;;4.55;;
74926;SDS011;63488;48.092;-1.640;2023-03-12T03:41:06;24.38;;;4.93;;
74926;SDS011;63488;48.092;-1.640;2023-03-12T03:43:31;23.50;;;4.85;;
74926;SDS011;63488;48.092;-1.640;2023-03-12T03:46:00;20.95;;;4.90;;
74926;SDS011;63488;48.092;-1.640;2023-03-12T03:50:51;22.17;;;4.47;;
74926;SDS011;63488;48.092;-1.640;2023-03-12T03:53:17;25.20;;;4.35;;
74926;SDS011;63488;48.092;-1.640;2023-03-12T03:55:43;28.10;;;4.38;;
74926;SDS011;63488;48.092;-1.640;2023-03-12T03:58:09;26.10;;;5.18;;
74926;SDS011;63488;48.092;-1.640;2023-03-12T04:00:34;21.42;;;5.20;;
74926;SDS011;63488;48.092;-1.640;2023-03-12T04:02:59;23.77;;;5.00;;
74926;SDS011;63488;48.092;-1.640;2023-03-12T04:05:25;26.15;;;4.88;;
74926;SDS011;63488;48.092;-1.640;2023-03-12T04:07:51;25.67;;;5.05;;
74926;SDS011;63488;48.092;-1.640;2023-03-12T04:10:17;25.70;;;4.63;;
74926;SDS011;63488;48.092;-1.640;2023-03-12T04:12:43;21.05;;;4.35;;
74926;SDS011;63488;48.092;-1.640;2023-03-12T04:15:08;20.98;;;4.78;;
74926;SDS011;63488;48.092;-1.640;2023-03-12T04:17:33;20.10;;;4.38;;
74926;SDS011;63488;48.092;-1.640;2023-03-12T04:19:59;22.05;;;4.50;;
74926;SDS011;63488;48.092;-1.640;2023-03-12T04:22:24;29.33;;;4.90;;
74926;SDS011;63488;48.092;-1.640;2023-03-12T04:24:49;24.10;;;4.72;;
74926;SDS011;63488;48.092;-1.640;2023-03-12T04:27:15;20.85;;;4.80;;
74926;SDS011;63488;48.092;-1.640;2023-03-12T04:29:40;19.25;;;4.10;;
74926;SDS011;63488;48.092;-1.640;2023-03-12T04:32:06;26.15;;;4.90;;
74926;SDS011;63488;48.092;-1.640;2023-03-12T04:34:31;28.25;;;4.82;;
74926;SDS011;63488;48.092;-1.640;2023-03-12T04:36:57;18.10;;;3.90;;
74926;SDS011;63488;48.092;-1.640;2023-03-12T04:39:24;19.02;;;4.65;;
74926;SDS011;63488;48.092;-1.640;2023-03-12T04:41:49;24.42;;;4.78;;
74926;SDS011;63488;48.092;-1.640;2023-03-12T04:44:14;26.33;;;4.60;;
74926;SDS011;63488;48.092;-1.640;2023-03-12T04:46:40;25.20;;;4.75;;
74926;SDS011;63488;48.092;-1.640;2023-03-12T04:49:06;16.60;;;4.00;;
74926;SDS011;63488;48.092;-1.640;2023-03-12T04:51:31;21.25;;;4.68;;
74926;SDS011;63488;48.092;-1.640;2023-03-12T04:53:57;19.17;;;4.05;;
74926;SDS011;63488;48.092;-1.640;2023-03-12T04:56:22;18.90;;;4.03;;
74926;SDS011;63488;48.092;-1.640;2023-03-12T04:58:49;21.60;;;4.85;;
74926;SDS011;63488;48.092;-1.640;2023-03-12T05:01:28;19.85;;;4.55;;
74926;SDS011;63488;48.092;-1.640;2023-03-12T05:03:53;20.17;;;4.70;;
74926;SDS011;63488;48.092;-1.640;2023-03-12T05:06:19;23.27;;;4.10;;
74926;SDS011;63488;48.092;-1.640;2023-03-12T05:08:46;24.55;;;4.65;;
74926;SDS011;63488;48.092;-1.640;2023-03-12T05:11:11;22.02;;;4.57;;
74926;SDS011;63488;48.092;-1.640;2023-03-12T05:13:37;22.05;;;4.35;;
74926;SDS011;63488;48.092;-1.640;2023-03-12T05:16:02;19.80;;;4.03;;
74926;SDS011;63488;48.092;-1.640;2023-03-12T05:18:27;17.30;;;3.97;;
74926;SDS011;63488;48.092;-1.640;2023-03-12T05:20:59;25.92;;;4.30;;
74926;SDS011;63488;48.092;-1.640;2023-03-12T05:23:24;22.85;;;4.72;;
74926;SDS011;63488;48.092;-1.640;2023-03-12T05:25:49;20.55;;;4.30;;
74926;SDS011;63488;48.092;-1.640;2023-03-12T05:28:15;25.60;;;4.45;;
74926;SDS011;63488;48.092;-1.640;2023-03-12T05:30:40;24.23;;;5.03;;
74926;SDS011;63488;48.092;-1.640;2023-03-12T05:33:05;20.50;;;4.55;;
74926;SDS011;63488;48.092;-1.640;2023-03-12T05:35:31;21.58;;;4.22;;
74926;SDS011;63488;48.092;-1.640;2023-03-12T05:37:56;17.65;;;3.80;;
74926;SDS011;63488;48.092;-1.640;2023-03-12T05:40:21;21.67;;;4.28;;
74926;SDS011;63488;48.092;-1.640;2023-03-12T05:42:47;19.58;;;5.10;;
74926;SDS011;63488;48.092;-1.640;2023-03-12T05:45:12;17.35;;;4.60;;
74926;SDS011;63488;48.092;-1.640;2023-03-12T05:47:37;18.35;;;4.65;;
74926;SDS011;63488;48.092;-1.640;2023-03-12T05:50:03;19.67;;;4.53;;
74926;SDS011;63488;48.092;-1.640;2023-03-12T05:52:28;20.88;;;4.18;;
74926;SDS011;63488;48.092;-1.640;2023-03-12T05:54:53;21.15;;;4.20;;
74926;SDS011;63488;48.092;-1.640;2023-03-12T05:57:19;21.08;;;4.90;;
74926;SDS011;63488;48.092;-1.640;2023-03-12T05:59:44;20.23;;;4.57;;
74926;SDS011;63488;48.092;-1.640;2023-03-12T06:02:09;16.65;;;3.70;;
74926;SDS011;63488;48.092;-1.640;2023-03-12T06:04:35;19.30;;;4.78;;
74926;SDS011;63488;48.092;-1.640;2023-03-12T06:07:01;20.17;;;3.85;;
74926;SDS011;63488;48.092;-1.640;2023-03-12T06:09:26;18.33;;;4.03;;
74926;SDS011;63488;48.092;-1.640;2023-03-12T06:11:51;21.58;;;4.22;;
74926;SDS011;63488;48.092;-1.640;2023-03-12T06:14:17;19.30;;;3.70;;
74926;SDS011;63488;48.092;-1.640;2023-03-12T06:16:42;20.33;;;4.78;;
74926;SDS011;63488;48.092;-1.640;2023-03-12T06:19:10;17.55;;;4.70;;
74926;SDS011;63488;48.092;-1.640;2023-03-12T06:21:38;19.20;;;3.40;;
74926;SDS011;63488;48.092;-1.640;2023-03-12T06:24:03;17.35;;;3.72;;
74926;SDS011;63488;48.092;-1.640;2023-03-12T06:26:28;19.48;;;4.05;;
74926;SDS011;63488;48.092;-1.640;2023-03-12T06:28:54;16.90;;;3.58;;
74926;SDS011;63488;48.092;-1.640;2023-03-12T06:31:20;15.98;;;4.03;;
74926;SDS011;63488;48.092;-1.640;2023-03-12T06:33:45;17.40;;;4.13;;
74926;SDS011;63488;48.092;-1.640;2023-03-12T06:36:11;15.40;;;3.50;;
74926;SDS011;63488;48.092;-1.640;2023-03-12T06:38:36;13.85;;;3.55;;
74926;SDS011;63488;48.092;-1.640;2023-03-12T06:41:03;13.70;;;3.20;;
74926;SDS011;63488;48.092;-1.640;2023-03-12T06:43:29;14.57;;;3.33;;
74926;SDS011;63488;48.092;-1.640;2023-03-12T06:45:56;15.18;;;3.40;;
74926;SDS011;63488;48.092;-1.640;2023-03-12T06:48:22;16.38;;;2.95;;
74926;SDS011;63488;48.092;-1.640;2023-03-12T06:50:48;18.25;;;3.88;;
74926;SDS011;63488;48.092;-1.640;2023-03-12T06:53:13;15.45;;;3.58;;
74926;SDS011;63488;48.092;-1.640;2023-03-12T06:55:39;13.40;;;2.97;;
74926;SDS011;63488;48.092;-1.640;2023-03-12T06:58:04;11.75;;;3.13;;
74926;SDS011;63488;48.092;-1.640;2023-03-12T07:00:30;13.50;;;3.28;;
74926;SDS011;63488;48.092;-1.640;2023-03-12T07:02:55;14.02;;;3.28;;
74926;SDS011;63488;48.092;-1.640;2023-03-12T07:05:21;16.80;;;3.83;;
74926;SDS011;63488;48.092;-1.640;2023-03-12T07:07:47;13.00;;;3.25;;
74926;SDS011;63488;48.092;-1.640;2023-03-12T07:10:14;13.77;;;3.65;;
74926;SDS011;63488;48.092;-1.640;2023-03-12T07:12:39;11.85;;;3.67;;
74926;SDS011;63488;48.092;-1.640;2023-03-12T07:15:05;17.13;;;3.53;;
74926;SDS011;63488;48.092;-1.640;2023-03-12T07:17:30;14.30;;;3.53;;
74926;SDS011;63488;48.092;-1.640;2023-03-12T07:19:55;17.45;;;3.88;;
74926;SDS011;63488;48.092;-1.640;2023-03-12T07:22:21;17.90;;;3.80;;
74926;SDS011;63488;48.092;-1.640;2023-03-12T07:24:46;15.13;;;3.38;;
74926;SDS011;63488;48.092;-1.640;2023-03-12T07:27:11;19.02;;;3.85;;
74926;SDS011;63488;48.092;-1.640;2023-03-12T07:29:37;17.98;;;3.80;;
74926;SDS011;63488;48.092;-1.640;2023-03-12T07:32:02;14.43;;;4.03;;
74926;SDS011;63488;48.092;-1.640;2023-03-12T07:34:28;15.55;;;3.53;;
74926;SDS011;63488;48.092;-1.640;2023-03-12T07:36:53;21.52;;;4.10;;
74926;SDS011;63488;48.092;-1.640;2023-03-12T07:39:19;19.42;;;4.00;;
74926;SDS011;63488;48.092;-1.640;2023-03-12T07:41:44;16.55;;;3.95;;
74926;SDS011;63488;48.092;-1.640;2023-03-12T07:44:09;20.17;;;4.10;;
74926;SDS011;63488;48.092;-1.640;2023-03-12T07:46:35;21.80;;;4.30;;
74926;SDS011;63488;48.092;-1.640;2023-03-12T07:49:00;15.82;;;4.13;;
74926;SDS011;63488;48.092;-1.640;2023-03-12T07:51:26;20.17;;;4.22;;
74926;SDS011;63488;48.092;-1.640;2023-03-12T07:53:51;20.77;;;4.15;;
74926;SDS011;63488;48.092;-1.640;2023-03-12T07:56:16;24.10;;;4.63;;
74926;SDS011;63488;48.092;-1.640;2023-03-12T07:58:42;21.92;;;4.57;;
74926;SDS011;63488;48.092;-1.640;2023-03-12T08:01:07;19.40;;;3.80;;
74926;SDS011;63488;48.092;-1.640;2023-03-12T08:03:33;19.80;;;4.10;;
74926;SDS011;63488;48.092;-1.640;2023-03-12T08:05:59;21.25;;;4.18;;
74926;SDS011;63488;48.092;-1.640;2023-03-12T08:08:25;20.10;;;3.90;;
74926;SDS011;63488;48.092;-1.640;2023-03-12T08:10:50;23.92;;;4.22;;
74926;SDS011;63488;48.092;-1.640;2023-03-12T08:13:16;19.05;;;4.32;;
74926;SDS011;63488;48.092;-1.640;2023-03-12T08:15:42;21.63;;;4.15;;
74926;SDS011;63488;48.092;-1.640;2023-03-12T08:18:07;21.83;;;4.47;;
74926;SDS011;63488;48.092;-1.640;2023-03-12T08:20:33;19.98;;;4.57;;
74926;SDS011;63488;48.092;-1.640;2023-03-12T08:22:58;23.33;;;4.50;;
74926;SDS011;63488;48.092;-1.640;2023-03-12T08:25:23;23.50;;;4.30;;
74926;SDS011;63488;48.092;-1.640;2023-03-12T08:27:49;15.95;;;3.58;;
74926;SDS011;63488;48.092;-1.640;2023-03-12T08:30:14;22.50;;;4.05;;
74926;SDS011;63488;48.092;-1.640;2023-03-12T08:32:39;21.20;;;3.78;;
74926;SDS011;63488;48.092;-1.640;2023-03-12T08:35:05;21.48;;;4.38;;
74926;SDS011;63488;48.092;-1.640;2023-03-12T08:37:30;19.48;;;4.43;;
74926;SDS011;63488;48.092;-1.640;2023-03-12T08:39:55;21.17;;;4.32;;
74926;SDS011;63488;48.092;-1.640;2023-03-12T08:42:21;17.83;;;4.35;;
74926;SDS011;63488;48.092;-1.640;2023-03-12T08:44:47;20.75;;;4.07;;
74926;SDS011;63488;48.092;-1.640;2023-03-12T08:47:12;20.80;;;3.78;;
74926;SDS011;63488;48.092;-1.640;2023-03-12T08:49:37;20.50;;;4.25;;
74926;SDS011;63488;48.092;-1.640;2023-03-12T08:52:03;19.10;;;4.63;;
74926;SDS011;63488;48.092;-1.640;2023-03-12T08:54:28;23.00;;;4.30;;
74926;SDS011;63488;48.092;-1.640;2023-03-12T08:56:53;21.73;;;4.25;;
74926;SDS011;63488;48.092;-1.640;2023-03-12T08:59:19;21.13;;;4.15;;
74926;SDS011;63488;48.092;-1.640;2023-03-12T09:01:44;25.25;;;4.53;;
74926;SDS011;63488;48.092;-1.640;2023-03-12T09:04:10;31.17;;;5.00;;
74926;SDS011;63488;48.092;-1.640;2023-03-12T09:06:35;21.88;;;4.45;;
74926;SDS011;63488;48.092;-1.640;2023-03-12T09:09:02;22.35;;;4.30;;
74926;SDS011;63488;48.092;-1.640;2023-03-12T09:11:29;25.02;;;4.57;;
74926;SDS011;63488;48.092;-1.640;2023-03-12T09:13:55;27.67;;;4.80;;
74926;SDS011;63488;48.092;-1.640;2023-03-12T09:16:20;24.98;;;4.68;;
74926;SDS011;63488;48.092;-1.640;2023-03-12T09:18:45;19.73;;;4.53;;
74926;SDS011;63488;48.092;-1.640;2023-03-12T09:21:11;24.67;;;4.13;;
74926;SDS011;63488;48.092;-1.640;2023-03-12T09:23:36;28.15;;;5.20;;
74926;SDS011;63488;48.092;-1.640;2023-03-12T09:26:01;24.55;;;4.15;;
74926;SDS011;63488;48.092;-1.640;2023-03-12T09:28:27;20.77;;;4.20;;
74926;SDS011;63488;48.092;-1.640;2023-03-12T09:30:52;28.10;;;5.05;;
74926;SDS011;63488;48.092;-1.640;2023-03-12T09:33:18;20.85;;;4.25;;
74926;SDS011;63488;48.092;-1.640;2023-03-12T09:35:43;21.90;;;4.10;;
74926;SDS011;63488;48.092;-1.640;2023-03-12T09:38:15;21.33;;;4.07;;
74926;SDS011;63488;48.092;-1.640;2023-03-12T09:40:42;21.60;;;3.92;;
74926;SDS011;63488;48.092;-1.640;2023-03-12T09:45:37;23.43;;;4.10;;
74926;SDS011;63488;48.092;-1.640;2023-03-12T09:48:04;19.92;;;3.58;;
74926;SDS011;63488;48.092;-1.640;2023-03-12T09:50:31;25.63;;;3.85;;
74926;SDS011;63488;48.092;-1.640;2023-03-12T09:53:01;18.77;;;4.65;;
74926;SDS011;63488;48.092;-1.640;2023-03-12T09:57:52;17.27;;;3.50;;
74926;SDS011;63488;48.092;-1.640;2023-03-12T10:00:32;20.80;;;3.63;;
74926;SDS011;63488;48.092;-1.640;2023-03-12T10:10:39;22.63;;;4.45;;
74926;SDS011;63488;48.092;-1.640;2023-03-12T10:13:14;18.17;;;3.78;;
74926;SDS011;63488;48.092;-1.640;2023-03-12T10:21:11;18.52;;;3.63;;
74926;SDS011;63488;48.092;-1.640;2023-03-12T10:23:57;23.58;;;4.22;;
74926;SDS011;63488;48.092;-1.640;2023-03-12T10:26:43;22.13;;;3.63;;
74926;SDS011;63488;48.092;-1.640;2023-03-12T10:29:16;19.92;;;3.38;;
74926;SDS011;63488;48.092;-1.640;2023-03-12T10:34:31;20.80;;;3.88;;
74926;SDS011;63488;48.092;-1.640;2023-03-12T10:36:57;25.48;;;4.05;;
74926;SDS011;63488;48.092;-1.640;2023-03-12T10:39:23;21.50;;;3.72;;
74926;SDS011;63488;48.092;-1.640;2023-03-12T10:41:49;20.15;;;3.67;;
74926;SDS011;63488;48.092;-1.640;2023-03-12T10:44:19;24.35;;;3.80;;
74926;SDS011;63488;48.092;-1.640;2023-03-12T10:54:30;23.67;;;3.90;;
74926;SDS011;63488;48.092;-1.640;2023-03-12T10:56:55;22.50;;;3.85;;
74926;SDS011;63488;48.092;-1.640;2023-03-12T10:59:21;20.90;;;4.15;;
74926;SDS011;63488;48.092;-1.640;2023-03-12T11:01:48;22.80;;;3.97;;
74926;SDS011;63488;48.092;-1.640;2023-03-12T11:06:40;26.65;;;4.55;;
74926;SDS011;63488;48.092;-1.640;2023-03-12T11:11:34;24.05;;;4.63;;
74926;SDS011;63488;48.092;-1.640;2023-03-12T11:14:06;17.75;;;3.28;;
74926;SDS011;63488;48.092;-1.640;2023-03-12T11:16:32;18.63;;;3.47;;
74926;SDS011;63488;48.092;-1.640;2023-03-12T11:21:26;23.88;;;4.10;;
74926;SDS011;63488;48.092;-1.640;2023-03-12T11:26:21;22.17;;;4.32;;
74926;SDS011;63488;48.092;-1.640;2023-03-12T11:28:48;22.42;;;3.70;;
74926;SDS011;63488;48.092;-1.640;2023-03-12T11:31:15;20.85;;;4.45;;
74926;SDS011;63488;48.092;-1.640;2023-03-12T11:33:43;19.90;;;4.13;;
74926;SDS011;63488;48.092;-1.640;2023-03-12T11:36:13;18.95;;;4.00;;
74926;SDS011;63488;48.092;-1.640;2023-03-12T11:44:10;20.77;;;4.40;;
74926;SDS011;63488;48.092;-1.640;2023-03-12T11:46:55;22.60;;;4.35;;
74926;SDS011;63488;48.092;-1.640;2023-03-12T11:49:32;22.92;;;4.75;;
74926;SDS011;63488;48.092;-1.640;2023-03-12T12:14:02;20.08;;;4.18;;
74926;SDS011;63488;48.092;-1.640;2023-03-12T12:18:49;18.63;;;3.50;;
74926;SDS011;63488;48.092;-1.640;2023-03-12T12:23:57;17.52;;;3.78;;
74926;SDS011;63488;48.092;-1.640;2023-03-12T12:26:31;23.35;;;3.72;;
74926;SDS011;63488;48.092;-1.640;2023-03-12T12:31:36;21.23;;;4.18;;
74926;SDS011;63488;48.092;-1.640;2023-03-12T12:36:43;20.85;;;4.18;;
74926;SDS011;63488;48.092;-1.640;2023-03-12T12:39:12;18.73;;;3.85;;
74926;SDS011;63488;48.092;-1.640;2023-03-12T12:41:41;16.42;;;3.65;;
74926;SDS011;63488;48.092;-1.640;2023-03-12T12:44:42;19.25;;;3.60;;
74926;SDS011;63488;48.092;-1.640;2023-03-12T12:47:01;15.32;;;3.08;;
74926;SDS011;63488;48.092;-1.640;2023-03-12T12:51:59;21.67;;;3.53;;
74926;SDS011;63488;48.092;-1.640;2023-03-12T12:54:35;16.00;;;3.47;;
74926;SDS011;63488;48.092;-1.640;2023-03-12T13:01:56;17.50;;;2.60;;
74926;SDS011;63488;48.092;-1.640;2023-03-12T13:06:57;15.43;;;2.97;;
74926;SDS011;63488;48.092;-1.640;2023-03-12T13:09:34;14.85;;;2.85;;
74926;SDS011;63488;48.092;-1.640;2023-03-12T13:12:05;18.90;;;3.97;;
74926;SDS011;63488;48.092;-1.640;2023-03-12T13:14:34;22.45;;;3.95;;
74926;SDS011;63488;48.092;-1.640;2023-03-12T13:19:26;16.87;;;3.20;;
74926;SDS011;63488;48.092;-1.640;2023-03-12T13:22:00;18.63;;;3.53;;
74926;SDS011;63488;48.092;-1.640;2023-03-12T13:24:34;14.77;;;2.72;;
74926;SDS011;63488;48.092;-1.640;2023-03-12T13:29:40;18.90;;;3.47;;
74926;SDS011;63488;48.092;-1.640;2023-03-12T13:34:55;17.73;;;3.35;;
74926;SDS011;63488;48.092;-1.640;2023-03-12T13:40:31;11.55;;;2.40;;
74926;SDS011;63488;48.092;-1.640;2023-03-12T13:43:00;17.70;;;2.80;;
74926;SDS011;63488;48.092;-1.640;2023-03-12T13:45:26;12.90;;;2.42;;
74926;SDS011;63488;48.092;-1.640;2023-03-12T13:47:53;12.30;;;2.50;;
74926;SDS011;63488;48.092;-1.640;2023-03-12T13:50:19;19.42;;;3.13;;
74926;SDS011;63488;48.092;-1.640;2023-03-12T13:52:48;15.57;;;3.20;;
74926;SDS011;63488;48.092;-1.640;2023-03-12T13:55:28;14.52;;;2.75;;
74926;SDS011;63488;48.092;-1.640;2023-03-12T14:03:01;14.90;;;2.80;;
74926;SDS011;63488;48.092;-1.640;2023-03-12T14:05:27;14.70;;;2.90;;
74926;SDS011;63488;48.092;-1.640;2023-03-12T14:13:19;9.75;;;2.42;;
74926;SDS011;63488;48.092;-1.640;2023-03-12T14:18:33;14.10;;;2.60;;
74926;SDS011;63488;48.092;-1.640;2023-03-12T14:21:01;16.95;;;2.50;;
74926;SDS011;63488;48.092;-1.640;2023-03-12T14:23:28;14.60;;;2.40;;
74926;SDS011;63488;48.092;-1.640;2023-03-12T14:25:59;13.07;;;2.90;;
74926;SDS011;63488;48.092;-1.640;2023-03-12T14:28:25;15.00;;;2.60;;
74926;SDS011;63488;48.092;-1.640;2023-03-12T14:30:58;9.68;;;2.30;;
74926;SDS011;63488;48.092;-1.640;2023-03-12T14:33:25;13.27;;;2.80;;
74926;SDS011;63488;48.092;-1.640;2023-03-12T14:35:56;13.27;;;2.28;;
74926;SDS011;63488;48.092;-1.640;2023-03-12T14:38:30;10.50;;;2.63;;
74926;SDS011;63488;48.092;-1.640;2023-03-12T14:41:03;11.93;;;2.17;;
74926;SDS011;63488;48.092;-1.640;2023-03-12T14:43:33;12.20;;;2.20;;
74926;SDS011;63488;48.092;-1.640;2023-03-12T14:46:00;10.33;;;2.07;;
74926;SDS011;63488;48.092;-1.640;2023-03-12T14:48:27;10.40;;;2.17;;
74926;SDS011;63488;48.092;-1.640;2023-03-12T14:50:52;11.13;;;1.83;;
74926;SDS011;63488;48.092;-1.640;2023-03-12T14:53:20;9.52;;;2.10;;
74926;SDS011;63488;48.092;-1.640;2023-03-12T14:55:57;8.25;;;1.88;;
74926;SDS011;63488;48.092;-1.640;2023-03-12T14:58:22;9.82;;;1.98;;
74926;SDS011;63488;48.092;-1.640;2023-03-12T15:00:55;8.57;;;1.90;;
74926;SDS011;63488;48.092;-1.640;2023-03-12T15:03:22;12.70;;;2.15;;
74926;SDS011;63488;48.092;-1.640;2023-03-12T15:05:48;9.48;;;2.25;;
74926;SDS011;63488;48.092;-1.640;2023-03-12T15:08:14;9.18;;;1.90;;
74926;SDS011;63488;48.092;-1.640;2023-03-12T15:10:40;9.80;;;1.73;;
74926;SDS011;63488;48.092;-1.640;2023-03-12T15:13:12;13.60;;;2.20;;
74926;SDS011;63488;48.092;-1.640;2023-03-12T15:15:41;9.73;;;1.90;;
74926;SDS011;63488;48.092;-1.640;2023-03-12T15:18:10;7.82;;;1.65;;
74926;SDS011;63488;48.092;-1.640;2023-03-12T15:20:37;10.05;;;1.92;;
74926;SDS011;63488;48.092;-1.640;2023-03-12T15:23:03;10.20;;;2.03;;
74926;SDS011;63488;48.092;-1.640;2023-03-12T15:25:30;9.07;;;2.13;;
74926;SDS011;63488;48.092;-1.640;2023-03-12T15:28:00;10.25;;;2.22;;
74926;SDS011;63488;48.092;-1.640;2023-03-12T15:30:26;10.30;;;2.05;;
74926;SDS011;63488;48.092;-1.640;2023-03-12T15:38:29;3.85;;;1.40;;
74926;SDS011;63488;48.092;-1.640;2023-03-12T15:40:56;7.07;;;1.42;;
74926;SDS011;63488;48.092;-1.640;2023-03-12T15:43:24;7.22;;;1.50;;
74926;SDS011;63488;48.092;-1.640;2023-03-12T15:46:01;6.68;;;1.10;;
74926;SDS011;63488;48.092;-1.640;2023-03-12T15:48:27;6.68;;;1.15;;
74926;SDS011;63488;48.092;-1.640;2023-03-12T15:50:53;7.38;;;1.52;;
74926;SDS011;63488;48.092;-1.640;2023-03-12T15:58:41;3.58;;;1.00;;
74926;SDS011;63488;48.092;-1.640;2023-03-12T16:03:32;3.17;;;0.80;;
74926;SDS011;63488;48.092;-1.640;2023-03-12T16:05:57;1.83;;;0.70;;
74926;SDS011;63488;48.092;-1.640;2023-03-12T16:08:35;3.90;;;1.02;;
74926;SDS011;63488;48.092;-1.640;2023-03-12T16:11:01;4.35;;;0.98;;
74926;SDS011;63488;48.092;-1.640;2023-03-12T16:13:28;3.20;;;0.70;;
74926;SDS011;63488;48.092;-1.640;2023-03-12T16:15:55;1.77;;;0.60;;
74926;SDS011;63488;48.092;-1.640;2023-03-12T16:18:21;1.60;;;0.55;;
74926;SDS011;63488;48.092;-1.640;2023-03-12T16:20:47;2.50;;;0.60;;
74926;SDS011;63488;48.092;-1.640;2023-03-12T16:23:13;2.75;;;1.10;;
74926;SDS011;63488;48.092;-1.640;2023-03-12T16:25:41;3.13;;;1.10;;
74926;SDS011;63488;48.092;-1.640;2023-03-12T16:28:06;2.08;;;0.50;;
74926;SDS011;63488;48.092;-1.640;2023-03-12T16:30:33;1.42;;;0.80;;
74926;SDS011;63488;48.092;-1.640;2023-03-12T16:32:58;1.98;;;0.60;;
74926;SDS011;63488;48.092;-1.640;2023-03-12T16:35:24;0.90;;;0.30;;